Decatur, IL (62521)

8:01 AM CDT on July 24, 2014 (GMT -0500)
Sandhill Dr. & Lost Bridge Rd. (KILDECAT5) Elev 676 ft | 39.82 °N, 88.92 °W | Change Station

Current weather conditions updated 15 seconds ago

Clear
Clear
63.3 °F
Feels Like 63.3 °F
N
2.1
Wind Variable Wind from North
Gusts 4.5 mph

Today is forecast to be Cooler than yesterday.

Today
High -- | Low -- °F
--% Chance of Precip.
Yesterday
High -- | Low -- °F
Precip. -- in
5:47 AM 8:16 PM
Waning Crescent, 5% visible
Pressure 30.16 in
Visibility 10.0 miles
Clouds Clear
Dew Point 62 °F
Humidity 96%
Rainfall 0.00 in
Snow Depth Not available.
UV 2 out of 12
Pollen 5.80 out of 12
Air Quality Not available.
Flu Activity Not available.
METAR KDEC 241254Z 02011KT 10SM SKC 17/17 A3016

More Conditions Fewer Conditions

Pressure 30.16 in
Visibility 10.0 miles
Clouds Clear
Dew Point 62 °F
Humidity 96%
Rainfall 0.00 in
Snow Depth Not available.
UV 2 out of 12
Pollen 5.80 out of 12
Air Quality Not available.
Flu Activity Not available.
METAR KDEC 241254Z 02011KT 10SM SKC 17/17 A3016

More Conditions Fewer Conditions

10-Day Weather Forecast

Almanac

Astronomy

Jul. 24, 2014 Rise Set
Actual Time 5:47 AM CDT 8:16 PM CDT
Civil Twilight 5:16 AM CDT 8:47 PM CDT
Nautical Twilight 4:37 AM CDT 9:25 PM CDT
Astronomical Twilight 3:55 AM CDT 10:08 PM CDT
Moon 3:55 AM CDT 6:31 PM CDT
Length of Visible Light 15h 31m
Length of Day
14h 29m
Tomorrow will be 1m 44s shorter.
Waning Crescent, 5% of the Moon is Illuminated
Today
Waning Crescent
Jul 26
New
Aug 3
First Quarter
Aug 10
Full
Aug 17
Last Quarter

Today's Extremes

State Highs State Lows

Community

WunderPhotos

Upload Photos

1,736,993 photos uploaded!

Nearby

Snow Depth

Station Depth Elevation
No new snow has been reported.

Earthquake Activity

City Distance Mag. Time & Date
No recent earthquake activity has been reported nearby.
Minimum magnitude displayed is 2.5.

Coastal Water Temperatures

Place Temperature
No Stations Reporting

Nearby Weather Stations

Station Location Temp. Dew Point Humidity Wind Precip. Elev Updated Type
Sandhill Dr. & Lost Bridge Rd., Decatur, IL 63.3 °F 62 °F 96% North  at  2.1 mph 0.00 in / hr 676 ft 8:01 AM CDT Rapid Fire
Forsyth Pkwy, Forsyth, IL 61.3 °F 58 °F 89% NE  at  3.0 mph 0.00 in / hr 669 ft 7:55 AM CDT Normal
APPLEVILLE, Mt Auburn, IL 58.6 °F 39 °F 48% East  at  0.0 mph - / hr 607 ft 7:58 AM CDT Normal
West of lovington, Lovington, IL 63.5 °F 59 °F 86% NNW  at  4.5 mph 0.00 in / hr 666 ft 8:01 AM CDT Rapid Fire
West Okaw River Valley, Sullivan, IL 59.6 °F 58 °F 93% NNE  at  0.0 mph 0.00 in / hr 656 ft 8:01 AM CDT Normal
Jones Family, Monticello, IL 61.7 °F 58 °F 88% NW  at  5.0 mph 0.00 in / hr 745 ft 7:57 AM CDT Normal
MesoWest KIRKVL , Sullivan, IL 56 °F - - North  at  - 0.00 in / hr 677 ft 6:35 AM CDT MADIS

Show More Stations Show Fewer Stations